Time;durP1;ratioP1;P1;durP2;ratioP2;P2;SDS_P1;SDS_P2;PMS_P1;PMS_P2;Temp;Humidity;BMP_temperature;BMP_pressure;BME280_temperature;BME280_humidity;BME280_pressure;Samples;Min_cycle;Max_cycle;Signal;HPM_P1;HPM_P2
2023/04/22 00:02:23;;;;;;;9.77;8.55;;;11.40;99.90;;;;;;5073759;28;20468;-60
2023/04/22 00:04:50;;;;;;;11.80;9.10;;;11.30;99.90;;;;;;5092690;28;20561;-60
2023/04/22 00:07:18;;;;;;;9.80;8.32;;;11.40;99.90;;;;;;5092826;28;20047;-61
2023/04/22 00:09:45;;;;;;;11.95;9.15;;;11.30;99.90;;;;;;5091943;28;20089;-62
2023/04/22 00:12:12;;;;;;;12.52;9.25;;;11.30;99.90;;;;;;5092248;28;20083;-61
2023/04/22 00:14:39;;;;;;;14.80;9.00;;;11.30;99.90;;;;;;5074294;28;20054;-61
2023/04/22 00:17:06;;;;;;;12.30;9.27;;;11.30;99.90;;;;;;5092136;28;20051;-60
2023/04/22 00:19:33;;;;;;;14.25;9.57;;;11.30;99.90;;;;;;5092474;28;20127;-60
2023/04/22 00:22:00;;;;;;;12.77;9.25;;;11.30;99.90;;;;;;5092091;28;20048;-62
2023/04/22 00:24:29;;;;;;;12.57;9.68;;;11.20;99.90;;;;;;5092039;28;20404;-62
2023/04/22 00:26:56;;;;;;;12.20;9.20;;;11.20;99.90;;;;;;5074405;28;20056;-61
2023/04/22 00:29:22;;;;;;;12.20;9.57;;;11.20;99.90;;;;;;5090739;28;20093;-61
2023/04/22 00:31:49;;;;;;;10.60;8.73;;;11.10;99.90;;;;;;5073555;28;20048;-60
2023/04/22 00:34:18;;;;;;;11.88;9.23;;;11.00;99.90;;;;;;5074092;28;20450;-61
2023/04/22 00:36:45;;;;;;;14.73;9.93;;;10.90;99.90;;;;;;5092034;28;20071;-61
2023/04/22 00:39:12;;;;;;;11.40;9.50;;;10.90;99.90;;;;;;5072347;28;20044;-60
2023/04/22 00:41:41;;;;;;;10.98;9.70;;;10.80;99.90;;;;;;5073996;28;20052;-61
2023/04/22 00:44:10;;;;;;;12.65;10.48;;;10.70;99.90;;;;;;5091726;28;20055;-61
2023/04/22 00:46:38;;;;;;;11.82;9.27;;;10.60;99.90;;;;;;5092039;28;20035;-61
2023/04/22 00:49:05;;;;;;;11.98;9.70;;;10.60;99.90;;;;;;5092116;28;20399;-60
2023/04/22 00:51:32;;;;;;;14.88;10.80;;;10.60;99.90;;;;;;5091134;28;20052;-61
2023/04/22 00:54:00;;;;;;;13.75;11.00;;;10.50;99.90;;;;;;5073811;28;20044;-61
2023/04/22 00:56:28;;;;;;;11.77;9.88;;;10.50;99.90;;;;;;5071765;28;20047;-62
2023/04/22 00:58:57;;;;;;;12.07;10.20;;;10.40;99.90;;;;;;5073564;28;20052;-61
2023/04/22 01:01:24;;;;;;;12.00;10.45;;;10.40;99.90;;;;;;5091958;28;20153;-62
2023/04/22 01:03:52;;;;;;;12.52;10.68;;;10.40;99.90;;;;;;5091469;28;20523;-60
2023/04/22 01:06:20;;;;;;;13.85;10.95;;;10.30;99.90;;;;;;5091299;28;20066;-62
2023/04/22 01:08:47;;;;;;;15.43;11.13;;;10.30;99.90;;;;;;5073809;28;20075;-60
2023/04/22 01:11:14;;;;;;;14.43;11.00;;;10.20;99.90;;;;;;5095820;28;20040;-62
2023/04/22 01:13:41;;;;;;;16.65;10.68;;;10.20;99.90;;;;;;5095396;28;20048;-62
2023/04/22 01:16:10;;;;;;;12.95;10.35;;;10.20;99.90;;;;;;5095791;28;20453;-62
2023/04/22 01:18:38;;;;;;;13.88;11.05;;;10.10;99.90;;;;;;5095988;28;20052;-61
2023/04/22 01:21:05;;;;;;;13.85;10.90;;;10.10;99.90;;;;;;5076977;28;20047;-61
2023/04/22 01:23:34;;;;;;;14.68;10.52;;;10.10;99.90;;;;;;5077556;28;20044;-61
2023/04/22 01:26:01;;;;;;;15.30;11.60;;;10.10;99.90;;;;;;5095354;28;20051;-61
2023/04/22 01:28:29;;;;;;;13.75;11.70;;;10.10;99.90;;;;;;5095697;28;20087;-62
2023/04/22 01:30:56;;;;;;;16.75;13.00;;;10.10;99.90;;;;;;5095943;28;20048;-61
2023/04/22 01:33:24;;;;;;;17.70;14.15;;;10.20;99.90;;;;;;5094911;28;20044;-61
2023/04/22 01:35:51;;;;;;;18.75;14.73;;;10.20;99.90;;;;;;5077584;28;20105;-61
2023/04/22 01:38:18;;;;;;;19.27;14.50;;;10.20;99.90;;;;;;5093502;28;20055;-61
2023/04/22 01:40:46;;;;;;;19.13;15.15;;;10.20;99.90;;;;;;5094910;28;20044;-61
2023/04/22 01:43:13;;;;;;;17.17;14.43;;;10.20;99.90;;;;;;5077007;28;20147;-61
2023/04/22 01:45:40;;;;;;;19.73;14.57;;;10.30;99.90;;;;;;5077394;28;20052;-61
2023/04/22 01:48:06;;;;;;;18.42;14.52;;;10.30;99.90;;;;;;5094448;28;20052;-62
2023/04/22 01:50:33;;;;;;;18.52;15.32;;;10.30;99.90;;;;;;5077234;28;20055;-61
2023/04/22 01:53:01;;;;;;;21.52;15.57;;;10.20;99.90;;;;;;5093165;28;20457;-61
2023/04/22 01:55:28;;;;;;;23.48;15.35;;;10.20;99.90;;;;;;5094591;28;20044;-61
2023/04/22 01:57:56;;;;;;;15.23;13.15;;;10.20;99.90;;;;;;5077021;28;20051;-61
2023/04/22 02:00:23;;;;;;;20.17;14.35;;;10.20;99.90;;;;;;5094903;28;20564;-60
2023/04/22 02:02:50;;;;;;;17.25;14.27;;;10.10;99.90;;;;;;5075242;28;20069;-60
2023/04/22 02:05:18;;;;;;;16.85;13.75;;;10.00;99.90;;;;;;5093884;28;20051;-60
2023/04/22 02:07:45;;;;;;;13.98;11.88;;;10.00;99.90;;;;;;5093967;28;20044;-61
2023/04/22 02:10:12;;;;;;;17.90;13.50;;;10.00;99.90;;;;;;5093126;28;20438;-61
2023/04/22 02:12:39;;;;;;;15.65;12.75;;;9.90;99.90;;;;;;5075633;28;20127;-61
2023/04/22 02:15:09;;;;;;;17.27;13.80;;;9.90;99.90;;;;;;5093420;28;20170;-61
2023/04/22 02:17:36;;;;;;;16.92;13.65;;;9.90;99.90;;;;;;5075270;28;20108;-62
2023/04/22 02:20:04;;;;;;;16.92;13.68;;;9.90;99.90;;;;;;5075065;28;20087;-61
2023/04/22 02:22:31;;;;;;;18.52;13.98;;;9.90;99.90;;;;;;5093030;28;20117;-61
2023/04/22 02:24:58;;;;;;;15.25;13.38;;;9.90;99.90;;;;;;5075353;28;20561;-61
2023/04/22 02:27:25;;;;;;;17.98;14.00;;;9.90;99.90;;;;;;5093492;28;20109;-61
2023/04/22 02:29:52;;;;;;;17.55;14.40;;;9.90;99.90;;;;;;5072401;28;20048;-61
2023/04/22 02:32:20;;;;;;;17.48;14.30;;;9.90;99.90;;;;;;5075409;28;20059;-62
2023/04/22 02:34:48;;;;;;;17.63;14.48;;;9.90;99.90;;;;;;5093426;28;20442;-61
2023/04/22 02:37:15;;;;;;;16.60;13.68;;;10.00;99.90;;;;;;5074897;28;20575;-62
2023/04/22 02:39:42;;;;;;;16.20;13.15;;;10.00;99.90;;;;;;5073192;28;20566;-61
2023/04/22 02:42:09;;;;;;;19.30;14.80;;;9.90;99.90;;;;;;5093026;28;20970;-61
2023/04/22 02:44:36;;;;;;;17.55;13.50;;;9.90;99.90;;;;;;5074457;28;20048;-62
2023/04/22 02:47:03;;;;;;;17.02;14.18;;;9.90;99.90;;;;;;5093193;28;20043;-61
2023/04/22 02:49:31;;;;;;;20.20;15.82;;;9.90;99.90;;;;;;5075315;28;20070;-61
2023/04/22 02:51:58;;;;;;;23.02;17.15;;;9.80;99.90;;;;;;5074207;28;20113;-62
2023/04/22 02:54:25;;;;;;;18.80;16.23;;;9.70;99.90;;;;;;5092983;28;20052;-61
2023/04/22 02:56:52;;;;;;;19.55;15.25;;;9.70;99.90;;;;;;5092734;28;20500;-61
2023/04/22 02:59:19;;;;;;;17.45;15.55;;;9.60;99.90;;;;;;5074494;28;20105;-62
2023/04/22 03:01:45;;;;;;;18.50;14.32;;;9.60;99.90;;;;;;5035455;28;1116951;-61
2023/04/22 03:04:12;;;;;;;16.48;13.38;;;9.50;99.90;;;;;;5093784;28;20036;-62
2023/04/22 03:06:41;;;;;;;19.80;14.27;;;9.50;99.90;;;;;;5075402;28;20514;-62
2023/04/22 03:09:08;;;;;;;18.58;14.10;;;9.40;99.90;;;;;;5093667;28;20461;-62
2023/04/22 03:11:35;;;;;;;16.02;13.20;;;9.30;99.90;;;;;;5075003;28;20054;-62
2023/04/22 03:14:02;;;;;;;16.20;13.18;;;9.30;99.90;;;;;;5093407;28;20048;-61
2023/04/22 03:16:28;;;;;;;15.32;12.95;;;9.30;99.90;;;;;;5075718;28;20052;-61
2023/04/22 03:18:55;;;;;;;16.63;13.20;;;9.30;99.90;;;;;;5093199;28;20051;-61
2023/04/22 03:21:22;;;;;;;18.23;13.45;;;9.20;99.90;;;;;;5093379;28;20500;-61
2023/04/22 03:23:50;;;;;;;16.65;13.27;;;9.20;99.90;;;;;;5092773;28;20111;-64
2023/04/22 03:26:17;;;;;;;17.00;13.32;;;9.20;99.90;;;;;;5091210;28;20048;-63
2023/04/22 03:28:44;;;;;;;19.40;13.77;;;9.10;99.90;;;;;;5075283;28;20059;-64
2023/04/22 03:31:11;;;;;;;19.08;13.27;;;9.20;99.90;;;;;;5075544;28;20120;-64
2023/04/22 03:33:38;;;;;;;17.75;13.48;;;9.20;99.90;;;;;;5073563;28;20056;-63
2023/04/22 03:36:05;;;;;;;19.48;13.90;;;9.10;99.90;;;;;;5093141;28;20066;-64
2023/04/22 03:38:32;;;;;;;19.05;15.20;;;9.10;99.90;;;;;;5093259;28;20119;-62
2023/04/22 03:41:00;;;;;;;18.58;14.10;;;9.10;99.90;;;;;;5092557;28;20048;-64
2023/04/22 03:43:27;;;;;;;21.52;14.23;;;9.10;99.90;;;;;;5090827;28;20048;-63
2023/04/22 03:45:54;;;;;;;18.80;13.38;;;9.10;99.90;;;;;;5093173;28;20048;-63
2023/04/22 03:48:21;;;;;;;19.05;14.07;;;9.10;99.90;;;;;;5090580;28;20462;-63
2023/04/22 03:50:48;;;;;;;18.85;14.93;;;9.10;99.90;;;;;;5074867;28;20051;-63
2023/04/22 03:53:15;;;;;;;19.75;14.43;;;9.00;99.90;;;;;;5092715;28;20044;-64
2023/04/22 03:55:42;;;;;;;18.55;14.95;;;9.00;99.90;;;;;;5074360;28;20165;-63
2023/04/22 03:58:10;;;;;;;18.02;14.10;;;9.00;99.90;;;;;;5092973;28;20047;-62
2023/04/22 04:00:37;;;;;;;19.05;15.32;;;9.00;99.90;;;;;;5074822;28;20044;-61
2023/04/22 04:03:04;;;;;;;16.77;13.45;;;9.70;99.90;;;;;;5073819;28;20044;-61
2023/04/22 04:05:31;;;;;;;17.77;14.73;;;9.00;99.90;;;;;;5092409;28;20090;-63
2023/04/22 04:07:58;;;;;;;20.67;15.50;;;9.00;99.90;;;;;;5074055;28;20093;-63
2023/04/22 04:10:25;;;;;;;17.27;14.80;;;9.00;99.90;;;;;;5072421;28;20514;-63
2023/04/22 04:12:52;;;;;;;20.52;14.73;;;9.00;99.90;;;;;;5092743;28;20113;-63
2023/04/22 04:15:20;;;;;;;19.23;14.23;;;8.90;99.90;;;;;;5071647;28;20101;-64
2023/04/22 04:17:47;;;;;;;20.13;14.52;;;9.00;99.90;;;;;;5074157;28;20454;-63
2023/04/22 04:20:14;;;;;;;17.70;14.82;;;9.00;99.90;;;;;;5092106;28;20047;-63
2023/04/22 04:22:41;;;;;;;19.00;13.93;;;9.00;99.90;;;;;;5091984;28;20101;-62
2023/04/22 04:25:09;;;;;;;19.60;14.85;;;9.10;99.90;;;;;;5092225;28;20123;-62
2023/04/22 04:27:38;;;;;;;18.98;14.88;;;9.10;99.90;;;;;;5073981;28;20052;-63
2023/04/22 04:30:06;;;;;;;17.40;14.50;;;9.00;99.90;;;;;;5073406;28;20403;-62
2023/04/22 04:32:34;;;;;;;19.38;14.57;;;9.00;99.90;;;;;;5092108;28;20094;-63
2023/04/22 04:35:02;;;;;;;18.95;15.00;;;9.00;99.90;;;;;;5092067;28;20048;-63
2023/04/22 04:37:29;;;;;;;18.35;14.90;;;9.00;99.90;;;;;;5071391;28;20050;-63
2023/04/22 04:39:58;;;;;;;20.65;15.88;;;9.00;99.90;;;;;;5071425;28;20052;-62
2023/04/22 04:42:25;;;;;;;19.45;14.73;;;8.90;99.90;;;;;;5092298;28;20052;-62
2023/04/22 04:44:52;;;;;;;18.42;15.38;;;9.00;99.90;;;;;;5073253;28;20062;-63
2023/04/22 04:47:21;;;;;;;20.45;14.40;;;8.90;99.90;;;;;;5072171;28;20058;-61
2023/04/22 04:49:52;;;;;;;19.83;14.65;;;9.00;99.90;;;;;;5091767;28;20070;-63
2023/04/22 04:52:18;;;;;;;;;;;9.00;99.90;;;;;;5092100;28;20050;-63
2023/04/22 04:54:45;;;;;;;19.88;14.98;;;9.00;99.90;;;;;;5092065;28;20330;-62
2023/04/22 04:57:12;;;;;;;19.13;15.05;;;9.00;99.90;;;;;;5091691;28;20071;-62
2023/04/22 04:59:39;;;;;;;20.58;14.25;;;9.00;99.90;;;;;;5074116;28;20385;-62
2023/04/22 05:02:06;;;;;;;18.67;15.13;;;9.00;99.90;;;;;;5091717;28;20145;-63
2023/04/22 05:04:33;;;;;;;17.50;15.23;;;9.00;99.90;;;;;;5073607;28;20050;-63
2023/04/22 05:07:01;;;;;;;19.83;14.70;;;9.10;99.90;;;;;;5092221;28;20059;-63
2023/04/22 05:09:28;;;;;;;20.38;15.75;;;9.10;99.90;;;;;;5071896;28;20151;-63
2023/04/22 05:11:55;;;;;;;17.67;14.15;;;9.30;99.90;;;;;;5072958;28;20056;-63
2023/04/22 05:14:22;;;;;;;17.48;14.18;;;9.30;99.90;;;;;;5071464;28;20048;-63
2023/04/22 05:16:49;;;;;;;16.80;13.63;;;9.30;99.90;;;;;;5092176;28;20069;-63
2023/04/22 05:19:15;;;;;;;17.83;14.07;;;9.40;99.90;;;;;;5088927;28;20047;-62
2023/04/22 05:21:42;;;;;;;18.15;14.13;;;9.40;99.90;;;;;;5091655;28;20492;-61
2023/04/22 05:24:10;;;;;;;14.00;12.13;;;9.50;99.90;;;;;;5073282;28;20044;-61
2023/04/22 05:26:38;;;;;;;15.35;13.15;;;9.60;99.90;;;;;;5086733;28;20110;-60
2023/04/22 05:29:05;;;;;;;14.27;12.00;;;9.60;99.90;;;;;;5063389;28;20118;-61
2023/04/22 05:31:32;;;;;;;15.60;11.93;;;9.60;99.90;;;;;;5087845;28;20052;-62
2023/04/22 05:33:59;;;;;;;17.58;12.82;;;9.70;99.90;;;;;;5070605;28;20044;-60
2023/04/22 05:36:27;;;;;;;17.42;13.25;;;9.80;99.90;;;;;;5089703;28;20408;-60
2023/04/22 05:38:53;;;;;;;16.88;12.35;;;9.80;99.90;;;;;;5071874;28;20237;-62
2023/04/22 05:41:22;;;;;;;17.92;12.73;;;9.90;99.90;;;;;;5071386;28;20093;-61
2023/04/22 05:43:49;;;;;;;16.45;11.85;;;10.00;99.90;;;;;;5090371;28;20052;-61
2023/04/22 05:46:16;;;;;;;15.80;12.45;;;10.10;99.90;;;;;;5070710;28;20069;-61
2023/04/22 05:48:42;;;;;;;16.23;11.95;;;10.20;99.90;;;;;;5072640;28;20093;-61
2023/04/22 05:51:09;;;;;;;16.00;11.18;;;10.20;99.90;;;;;;5087518;28;20495;-61
2023/04/22 05:53:36;;;;;;;15.93;11.52;;;10.30;99.90;;;;;;5090005;28;20047;-61
2023/04/22 05:56:03;;;;;;;13.75;11.30;;;10.40;99.90;;;;;;5089720;28;20048;-62
2023/04/22 05:58:31;;;;;;;14.98;12.18;;;10.40;99.90;;;;;;5076564;28;20051;-61
2023/04/22 06:00:58;;;;;;;14.70;11.57;;;10.50;99.90;;;;;;5090541;28;20066;-61
2023/04/22 06:03:25;;;;;;;13.65;11.45;;;10.60;99.90;;;;;;5073675;28;20052;-61
2023/04/22 06:05:52;;;;;;;15.20;11.32;;;10.60;99.90;;;;;;5091714;28;20527;-60
2023/04/22 06:08:19;;;;;;;17.25;11.55;;;10.60;99.90;;;;;;5074703;28;20048;-61
2023/04/22 06:10:46;;;;;;;12.93;11.25;;;10.70;99.90;;;;;;5092645;28;20503;-61
2023/04/22 06:13:13;;;;;;;15.90;11.23;;;10.70;99.90;;;;;;5092512;28;20560;-61
2023/04/22 06:15:41;;;;;;;16.08;11.30;;;10.80;99.90;;;;;;5093732;28;20044;-60
2023/04/22 06:18:08;;;;;;;13.95;10.95;;;10.90;99.90;;;;;;5072910;28;20060;-61
2023/04/22 06:20:35;;;;;;;12.32;10.68;;;10.90;99.90;;;;;;5094448;28;20059;-60
2023/04/22 06:23:04;;;;;;;13.38;10.93;;;11.00;99.90;;;;;;5072395;28;20059;-62
2023/04/22 06:25:31;;;;;;;14.52;11.00;;;11.10;99.90;;;;;;5071410;28;20052;-62
2023/04/22 06:27:58;;;;;;;14.20;11.35;;;11.10;99.90;;;;;;5092572;28;20040;-61
2023/04/22 06:30:25;;;;;;;15.90;10.68;;;11.20;99.90;;;;;;5074484;28;20059;-61
2023/04/22 06:32:54;;;;;;;15.10;10.85;;;11.30;99.90;;;;;;5089964;28;20048;-61
2023/04/22 06:35:21;;;;;;;11.65;10.20;;;11.40;99.90;;;;;;5092267;28;20119;-62
2023/04/22 06:37:48;;;;;;;16.77;11.88;;;11.50;99.90;;;;;;5089030;28;20400;-62
2023/04/22 06:40:15;;;;;;;11.88;10.48;;;11.70;99.90;;;;;;5093493;28;20442;-62
2023/04/22 06:42:42;;;;;;;11.88;10.10;;;11.90;99.90;;;;;;5090635;28;20109;-61
2023/04/22 06:45:11;;;;;;;11.95;10.35;;;12.00;99.90;;;;;;5075052;28;20052;-63
2023/04/22 06:47:38;;;;;;;11.32;9.75;;;12.10;99.90;;;;;;5072897;28;20086;-61
2023/04/22 06:50:08;;;;;;;12.73;10.48;;;12.10;99.90;;;;;;5092968;28;20048;-61
2023/04/22 06:52:35;;;;;;;13.68;10.57;;;12.10;99.90;;;;;;5091613;28;20047;-62
2023/04/22 06:55:03;;;;;;;14.90;10.15;;;12.10;99.90;;;;;;5092473;28;20044;-61
2023/04/22 06:57:30;;;;;;;14.63;10.30;;;12.10;99.90;;;;;;5073325;28;20756;-62
2023/04/22 06:59:57;;;;;;;12.90;10.13;;;12.10;99.90;;;;;;5091977;28;20097;-61
2023/04/22 07:02:24;;;;;;;13.90;10.20;;;12.10;99.90;;;;;;5090902;28;20051;-61
2023/04/22 07:04:51;;;;;;;11.60;9.43;;;12.20;99.90;;;;;;5089937;28;20433;-62
2023/04/22 07:07:19;;;;;;;11.90;9.93;;;12.20;99.90;;;;;;5089585;28;20057;-62
2023/04/22 07:09:46;;;;;;;12.40;8.88;;;11.90;99.90;;;;;;5074212;28;20516;-60
2023/04/22 07:12:13;;;;;;;11.13;9.18;;;12.30;99.90;;;;;;5047781;28;20056;-61
2023/04/22 07:14:43;;;;;;;11.05;9.45;;;12.30;99.90;;;;;;5059968;28;20055;-62
2023/04/22 07:17:10;;;;;;;10.80;9.23;;;12.40;99.90;;;;;;5068771;28;20058;-61
2023/04/22 07:19:37;;;;;;;13.00;9.02;;;12.40;99.90;;;;;;5089774;28;20044;-61
2023/04/22 07:22:05;;;;;;;12.07;9.13;;;12.50;99.90;;;;;;5073124;28;20531;-61
2023/04/22 07:24:33;;;;;;;12.02;8.23;;;12.60;99.90;;;;;;5088916;28;20047;-61
2023/04/22 07:27:01;;;;;;;11.20;8.73;;;12.60;99.90;;;;;;5089995;28;20114;-61
2023/04/22 07:29:28;;;;;;;11.55;9.57;;;12.70;99.90;;;;;;5081315;28;20056;-62
2023/04/22 07:31:55;;;;;;;9.48;7.97;;;12.80;99.90;;;;;;5068843;28;20125;-61
2023/04/22 07:34:22;;;;;;;12.50;9.02;;;12.90;99.90;;;;;;5086230;28;20540;-61
2023/04/22 07:36:50;;;;;;;10.30;8.52;;;13.00;99.90;;;;;;5090582;28;20044;-62
2023/04/22 07:39:17;;;;;;;11.77;9.13;;;13.00;99.90;;;;;;5069012;28;20075;-61
2023/04/22 07:41:46;;;;;;;10.85;8.15;;;13.10;99.90;;;;;;5070818;28;20067;-61
2023/04/22 07:44:16;;;;;;;14.40;8.68;;;13.30;99.90;;;;;;5090253;28;20047;-62
2023/04/22 07:46:43;;;;;;;11.35;8.90;;;13.50;99.90;;;;;;5087500;28;20158;-61
2023/04/22 07:49:12;;;;;;;13.35;8.20;;;13.60;99.90;;;;;;5090801;28;20136;-61
2023/04/22 07:51:39;;;;;;;11.98;8.68;;;13.80;99.90;;;;;;5070653;28;20407;-62
2023/04/22 07:54:06;;;;;;;9.68;8.07;;;13.90;99.90;;;;;;5089435;28;20052;-60
2023/04/22 07:56:33;;;;;;;9.43;8.18;;;14.00;99.90;;;;;;5071544;28;20051;-62
2023/04/22 07:59:02;;;;;;;10.15;7.93;;;14.20;99.90;;;;;;5072392;28;20048;-61
2023/04/22 08:01:29;;;;;;;9.38;7.90;;;14.40;99.90;;;;;;5069234;28;20052;-62
2023/04/22 08:03:56;;;;;;;12.30;8.15;;;14.50;99.90;;;;;;5085535;28;20102;-62
2023/04/22 08:06:23;;;;;;;9.75;8.18;;;14.60;99.90;;;;;;5065765;28;20048;-62
2023/04/22 08:08:50;;;;;;;11.60;7.95;;;14.80;99.90;;;;;;5089366;28;20060;-62
2023/04/22 08:11:17;;;;;;;11.00;7.93;;;15.00;99.90;;;;;;5069121;28;20048;-62
2023/04/22 08:13:44;;;;;;;10.30;7.88;;;15.20;99.90;;;;;;5073070;28;20109;-62
2023/04/22 08:16:13;;;;;;;12.25;8.80;;;15.30;99.90;;;;;;5088692;28;20070;-62
2023/04/22 08:18:41;;;;;;;9.27;7.65;;;15.60;99.90;;;;;;5084713;28;20044;-63
2023/04/22 08:21:08;;;;;;;8.30;7.40;;;15.70;99.90;;;;;;5069147;28;20094;-62
2023/04/22 08:23:36;;;;;;;8.90;7.28;;;15.90;99.90;;;;;;5055820;28;20123;-62
2023/04/22 08:26:04;;;;;;;9.45;7.47;;;16.30;99.90;;;;;;5074000;28;20047;-61
2023/04/22 08:28:36;;;;;;;10.15;7.75;;;16.70;99.90;;;;;;5073478;28;20056;-62
2023/04/22 08:31:05;;;;;;;8.60;6.90;;;17.00;99.90;;;;;;5074510;28;20079;-62
2023/04/22 08:33:34;;;;;;;8.95;6.88;;;17.60;99.90;;;;;;5091018;28;20071;-61
2023/04/22 08:36:02;;;;;;;10.57;7.80;;;18.10;99.90;;;;;;5088534;28;20040;-62
2023/04/22 08:38:29;;;;;;;8.27;7.20;;;18.40;99.90;;;;;;5091751;28;20040;-61
2023/04/22 08:40:57;;;;;;;8.20;6.30;;;18.90;99.90;;;;;;5092123;28;20052;-62
2023/04/22 08:43:26;;;;;;;10.85;7.03;;;19.40;99.90;;;;;;5073373;28;20055;-62
2023/04/22 08:45:53;;;;;;;10.32;7.05;;;19.90;99.90;;;;;;5091810;28;20059;-62
2023/04/22 08:48:20;;;;;;;9.40;7.25;;;20.40;99.90;;;;;;5092060;28;20047;-62
2023/04/22 08:50:50;;;;;;;8.15;7.28;;;20.50;99.90;;;;;;5091527;28;20075;-61
2023/04/22 08:53:17;;;;;;;8.02;6.28;;;20.30;99.90;;;;;;5092276;28;20388;-62
2023/04/22 08:55:44;;;;;;;7.20;6.47;;;20.60;99.90;;;;;;5089994;28;20046;-62
2023/04/22 08:58:11;;;;;;;8.10;6.45;;;21.00;99.90;;;;;;5091362;28;20132;-63
2023/04/22 09:00:39;;;;;;;8.10;7.22;;;21.20;99.90;;;;;;5073758;28;20577;-62
2023/04/22 09:03:08;;;;;;;8.32;6.95;;;21.40;99.90;;;;;;5091504;28;20044;-61
2023/04/22 09:05:36;;;;;;;9.32;7.43;;;21.60;99.90;;;;;;5072985;28;20056;-63
2023/04/22 09:08:06;;;;;;;7.60;6.43;;;21.90;99.90;;;;;;5071921;28;20509;-63
2023/04/22 09:10:36;;;;;;;8.15;6.68;;;21.50;99.90;;;;;;5091348;28;20557;-61
2023/04/22 09:13:04;;;;;;;7.20;6.10;;;21.70;99.90;;;;;;5091287;28;20073;-62
2023/04/22 09:15:31;;;;;;;8.93;6.35;;;22.10;99.90;;;;;;5073234;28;20306;-63
2023/04/22 09:17:58;;;;;;;6.57;5.78;;;22.50;99.90;;;;;;5090730;28;20491;-63
2023/04/22 09:20:27;;;;;;;6.68;5.93;;;23.00;99.90;;;;;;5091189;28;20487;-62
2023/04/22 09:22:55;;;;;;;7.93;6.60;;;23.40;98.80;;;;;;5090416;28;20048;-63
2023/04/22 09:25:25;;;;;;;6.75;5.95;;;23.90;97.90;;;;;;5090724;28;20044;-63
2023/04/22 09:27:54;;;;;;;6.57;5.57;;;23.90;96.30;;;;;;5090830;28;20578;-62
2023/04/22 09:30:24;;;;;;;7.00;5.70;;;24.10;95.50;;;;;;5091708;28;20101;-63
2023/04/22 09:32:56;;;;;;;10.75;6.78;;;24.20;95.90;;;;;;5094541;28;20150;-63
2023/04/22 09:35:30;;;;;;;7.03;5.63;;;24.50;94.80;;;;;;5095097;28;20040;-62
2023/04/22 09:37:58;;;;;;;8.85;6.55;;;25.00;94.20;;;;;;5095086;28;20139;-63
2023/04/22 09:40:27;;;;;;;7.35;5.55;;;25.00;94.20;;;;;;5077113;28;20090;-63
2023/04/22 09:42:57;;;;;;;8.00;5.88;;;25.10;94.10;;;;;;5072657;28;20056;-64
2023/04/22 09:45:29;;;;;;;6.68;5.40;;;25.00;94.30;;;;;;5094461;28;20044;-62
2023/04/22 09:47:57;;;;;;;6.00;5.40;;;24.60;93.10;;;;;;5077096;28;20052;-63
2023/04/22 09:50:25;;;;;;;6.00;5.05;;;24.10;94.10;;;;;;5077155;28;20052;-63
2023/04/22 09:52:57;;;;;;;6.15;5.20;;;23.80;94.10;;;;;;5076476;28;20047;-62
2023/04/22 09:55:28;;;;;;;8.10;5.82;;;23.40;93.90;;;;;;5094690;28;20052;-63
2023/04/22 09:57:55;;;;;;;6.60;5.22;;;23.00;93.80;;;;;;5076699;28;20051;-62
2023/04/22 10:00:25;;;;;;;6.60;5.35;;;23.00;94.70;;;;;;5094529;28;20043;-63
2023/04/22 10:02:52;;;;;;;7.32;5.55;;;22.60;94.90;;;;;;5074658;28;20105;-63
2023/04/22 10:05:19;;;;;;;7.03;5.15;;;22.40;94.60;;;;;;5076626;28;20421;-63
2023/04/22 10:07:46;;;;;;;6.13;5.43;;;22.50;94.50;;;;;;5094116;28;20048;-63
2023/04/22 10:10:13;;;;;;;7.88;5.82;;;22.40;94.20;;;;;;5093753;28;20413;-63
2023/04/22 10:12:42;;;;;;;6.00;4.70;;;22.70;94.20;;;;;;5075859;28;20104;-63
2023/04/22 10:15:10;;;;;;;6.72;5.53;;;23.10;94.00;;;;;;5075055;28;20097;-62
2023/04/22 10:17:39;;;;;;;7.90;5.03;;;23.30;93.70;;;;;;5094610;28;20048;-62
2023/04/22 10:20:12;;;;;;;6.65;5.25;;;23.90;93.30;;;;;;5094576;28;20135;-64
2023/04/22 10:22:41;;;;;;;7.38;4.78;;;24.30;92.40;;;;;;5064680;28;20060;-62
2023/04/22 10:25:13;;;;;;;7.00;5.07;;;24.40;91.80;;;;;;5090198;28;20047;-64
2023/04/22 10:27:42;;;;;;;6.93;4.80;;;24.80;91.00;;;;;;5074611;28;20126;-63
2023/04/22 10:30:11;;;;;;;6.20;4.80;;;24.50;91.00;;;;;;5076451;28;20097;-63
2023/04/22 10:32:38;;;;;;;5.57;4.60;;;25.00;90.60;;;;;;5091813;28;20143;-64
2023/04/22 10:35:11;;;;;;;5.88;5.00;;;25.10;90.80;;;;;;5074669;28;20502;-63
2023/04/22 10:37:42;;;;;;;5.50;4.55;;;25.40;90.20;;;;;;5073974;28;20066;-62
2023/04/22 10:40:12;;;;;;;6.90;4.22;;;25.20;90.30;;;;;;5092062;28;20075;-63
2023/04/22 10:42:47;;;;;;;6.03;4.65;;;25.10;89.70;;;;;;5091800;28;20139;-63
2023/04/22 10:45:15;;;;;;;5.75;4.80;;;25.40;89.20;;;;;;5090752;28;20127;-63
2023/04/22 10:47:42;;;;;;;6.63;4.28;;;25.60;90.00;;;;;;5093552;28;20051;-63
2023/04/22 10:50:16;;;;;;;6.68;4.05;;;25.70;89.70;;;;;;5073679;28;20047;-63
2023/04/22 10:52:46;;;;;;;8.32;4.80;;;26.20;89.20;;;;;;5093670;28;20044;-64
2023/04/22 10:55:13;;;;;;;7.82;5.00;;;26.40;88.60;;;;;;5092150;28;20048;-64
2023/04/22 10:57:41;;;;;;;4.50;4.03;;;26.60;88.00;;;;;;5092815;28;20048;-63
2023/04/22 11:00:25;;;;;;;5.43;3.63;;;26.70;87.00;;;;;;5091896;28;20423;-63
2023/04/22 11:02:54;;;;;;;8.23;3.53;;;26.80;85.90;;;;;;5093031;28;20082;-63
2023/04/22 11:05:23;;;;;;;10.13;6.18;;;26.30;87.00;;;;;;5073756;28;20109;-64
2023/04/22 11:07:53;;;;;;;6.67;4.87;;;26.40;86.80;;;;;;5074398;28;20435;-64
2023/04/22 11:10:36;;;;;;;6.47;4.25;;;26.40;86.10;;;;;;5074085;28;20302;-64
2023/04/22 11:13:05;;;;;;;8.25;5.53;;;26.40;86.00;;;;;;5091523;28;20083;-65
2023/04/22 11:15:35;;;;;;;;;;;27.10;86.50;;;;;;5093863;28;20097;-64
2023/04/22 11:18:02;;;;;;;7.88;4.45;;;26.90;84.90;;;;;;5072850;28;20277;-64
2023/04/22 11:20:29;;;;;;;7.15;5.30;;;27.20;84.90;;;;;;5075323;28;20510;-64
2023/04/22 11:22:57;;;;;;;7.03;4.90;;;27.20;84.20;;;;;;5073199;28;20077;-63
2023/04/22 11:25:25;;;;;;;5.55;4.15;;;26.40;83.30;;;;;;5074480;28;20121;-63
2023/04/22 11:27:53;;;;;;;6.53;5.35;;;26.40;83.90;;;;;;5091621;28;20052;-63
2023/04/22 11:30:21;;;;;;;5.90;4.70;;;26.70;85.10;;;;;;5093173;28;20139;-63
2023/04/22 11:32:51;;;;;;;6.32;5.60;;;27.40;84.80;;;;;;5089811;28;20048;-63
2023/04/22 11:35:19;;;;;;;11.38;5.05;;;27.70;81.60;;;;;;5074815;28;20048;-63
2023/04/22 11:37:48;;;;;;;10.93;5.18;;;27.60;82.00;;;;;;5070627;28;20496;-63
2023/04/22 11:40:17;;;;;;;12.70;5.15;;;27.50;82.10;;;;;;5091935;28;20554;-63
2023/04/22 11:42:44;;;;;;;9.48;5.28;;;27.30;82.00;;;;;;5090022;28;20073;-63
2023/04/22 11:45:12;;;;;;;7.55;5.43;;;26.80;81.00;;;;;;5073217;28;20059;-64
2023/04/22 11:47:39;;;;;;;12.88;5.75;;;26.70;81.80;;;;;;5091228;28;20043;-65
2023/04/22 11:50:10;;;;;;;5.88;4.78;;;26.20;81.20;;;;;;5072015;28;20075;-64
2023/04/22 11:52:48;;;;;;;5.00;4.38;;;26.40;82.30;;;;;;5089982;28;20132;-64
2023/04/22 11:55:17;;;;;;;6.60;4.65;;;27.00;80.90;;;;;;5089690;28;20091;-63
2023/04/22 11:57:46;;;;;;;16.83;4.88;;;27.10;82.20;;;;;;5089547;28;20044;-65
2023/04/22 12:00:16;;;;;;;5.97;4.38;;;26.40;82.30;;;;;;5089378;28;20446;-64
2023/04/22 12:02:46;;;;;;;5.85;3.90;;;26.50;81.80;;;;;;5068074;28;20119;-64
2023/04/22 12:05:14;;;;;;;5.68;4.50;;;26.80;81.70;;;;;;5070197;28;20491;-64
2023/04/22 12:07:43;;;;;;;7.45;4.63;;;26.70;81.60;;;;;;5071278;28;20059;-63
2023/04/22 12:10:11;;;;;;;8.45;4.32;;;26.80;81.20;;;;;;5084339;28;20059;-63
2023/04/22 12:12:39;;;;;;;4.93;4.10;;;27.10;80.60;;;;;;5052104;28;20142;-65
2023/04/22 12:15:09;;;;;;;4.50;3.90;;;27.10;80.30;;;;;;5063071;28;20101;-64
2023/04/22 12:17:36;;;;;;;5.50;4.10;;;26.90;80.70;;;;;;5090280;28;20598;-63
2023/04/22 12:20:05;;;;;;;6.78;4.00;;;26.20;80.40;;;;;;5069242;28;20097;-63
2023/04/22 12:22:33;;;;;;;6.00;3.70;;;25.60;80.20;;;;;;5070495;28;20052;-63
2023/04/22 12:25:00;;;;;;;5.10;3.97;;;25.10;81.00;;;;;;5072728;28;20076;-62
2023/04/22 12:27:27;;;;;;;4.32;3.70;;;24.70;81.80;;;;;;5089125;28;20578;-63
2023/04/22 12:29:56;;;;;;;7.68;4.15;;;24.10;83.20;;;;;;5091557;28;20070;-64
2023/04/22 12:32:25;;;;;;;5.13;4.15;;;23.80;84.20;;;;;;5089572;28;20097;-64
2023/04/22 12:34:52;;;;;;;4.55;3.55;;;23.30;85.10;;;;;;5072543;28;20044;-63
2023/04/22 12:37:19;;;;;;;6.47;4.18;;;23.10;86.40;;;;;;5087858;28;20484;-63
2023/04/22 12:39:47;;;;;;;5.15;3.95;;;22.90;86.70;;;;;;5073211;28;20040;-63
2023/04/22 12:42:14;;;;;;;5.97;4.18;;;22.80;87.00;;;;;;5069586;28;20484;-63